(°F)
17°
16°
15°
14°
14°
14°
13°
(°F)
-1°
-2°
-2°
-1°
-1°
-2°
N
N
N
N
N
N
N
(mph)
17-22
17-22
16-22
16-21
15-21
15-20
14-19
(in)
0
0
0
0
0
0
0
(%)
20
10
0
0
0
0
0

Sun elevation

/ -28.7°
sun-icon
UV 2
07:33
17:27
Waning gibbous moon (198°)
19:09
08:59

METAR for Gardner (KIXD)

Time Conditions Temperature/
Dewpoint
Wind Visibility Weather Clouds Pressure Change Raw
VFR 15.98°F / °F 350º 17kt >10km - Overcast 10000ft 1034 - KIXD 200053Z 35017KT 10SM OVC100 M09/M16 A3050 RMK AO2 PK WND 35026/0012 SLP344 T10891161
VFR 17.06°F / °F 340º 20kt Gust 26kt >10km - Overcast 11000ft 1032 - KIXD 192353Z 34020G26KT 10SM OVC110 M08/M16 A3045 RMK AO2 PK WND 34026/2352 SLP326 T10831156 11050 21083 51026
VFR 19.04°F / °F 350º 20kt Gust 24kt >10km - Broken Clouds 10000ft 1031 - KIXD 192253Z 35020G24KT 10SM BKN100 M07/M15 A3043 RMK AO2 PK WND 36028/2212 SLP317 T10721150
VFR 19.94°F / °F 350º 20kt Gust 27kt >10km - Overcast 10000ft 1030 - KIXD 192153Z 35020G27KT 10SM OVC100 M07/M15 A3040 RMK AO2 PK WND 35028/2057 SLP306 T10671150
VFR 19.94°F / °F 350º 19kt Gust 26kt >10km - Overcast 9500ft 1029 - KIXD 192053Z 35019G26KT 10SM OVC095 M07/M15 A3037 RMK AO2 PK WND 35027/2033 SLP296 T10671150 53008
VFR 23°F / °F 360º 18kt Gust 27kt >10km - Broken Clouds 7500ft
Overcast 8500ft
1028 - KIXD 191953Z 36018G27KT 10SM BKN075 OVC085 M05/M14 A3035 RMK AO2 PK WND 35028/1932 SLP287 T10501139
VFR 21.92°F / °F 360º 18kt Gust 27kt >10km - Scattered Clouds 9000ft
Broken Clouds 11000ft
1028 - KIXD 191853Z 36018G27KT 10SM SCT090 BKN110 M06/M14 A3035 RMK AO2 PK WND 01030/1819 SLP285 T10561139
VFR 23°F / °F 360º 16kt Gust 27kt >10km - Scattered Clouds 10000ft 1028 - KIXD 191753Z 36016G27KT 10SM SCT100 M05/M14 A3035 RMK AO2 PK WND 35034/1738 SLP286 T10501144 11017 21056 51034
VFR 23°F / °F 360º 19kt Gust 27kt >10km - Broken Clouds 11000ft 1028 - KIXD 191653Z 36019G27KT 10SM BKN110 M05/M13 A3033 RMK AO2 PK WND 01030/1621 SLP280 T10501128
VFR 23°F / °F 360º 16kt Gust 25kt >10km - Clear 1026 - KIXD 191553Z 36016G25KT 10SM CLR M05/M12 A3029 RMK AO2 PK WND 36030/1519 SLP265 T10501117
VFR 24.08°F / °F 360º 20kt Gust 27kt >10km - Clear 1024 - KIXD 191453Z 36020G27KT 10SM CLR M04/M11 A3025 RMK AO2 PK WND 01029/1405 SLP249 T10441111 51049
VFR 24.08°F / °F 360º 16kt Gust 28kt >10km - Clear 1023 - KIXD 191353Z 36016G28KT 10SM CLR M04/M10 A3020 RMK AO2 PK WND 36028/1345 SLP234 T10441100
VFR 26.96°F / 17.06°F 360º 16kt Gust 26kt >10km - Clear 1021 - KIXD 191253Z 36016G26KT 10SM CLR M03/M08 A3016 RMK AO2 PK WND 36030/1207 SLP218 T10281083
VFR 28.94°F / 21.02°F 360º 21kt Gust 29kt >10km - Few Clouds 1700ft 1019 - KIXD 191153Z 36021G29KT 10SM FEW017 M02/M06 A3010 RMK AO2 PK WND 36029/1146 SLP196 T10171061 10050 21017 53035
VFR 32°F / 24.98°F 350º 17kt Gust 25kt >10km - Scattered Clouds 1700ft 1017 - KIXD 191053Z AUTO 35017G25KT 10SM SCT017 00/M04 A3005 RMK AO2 PK WND 36028/1002 SLP179 T00001039
VFR 33.98°F / 26.96°F 360º 18kt Gust 27kt >10km - Scattered Clouds 1600ft 1016 - KIXD 190953Z AUTO 36018G27KT 10SM SCT016 01/M03 A3001 RMK AO2 PK WND 35027/0944 SLP165 T00111028
MVFR 35.06°F / 28.04°F 360º 17kt >10km - Broken Clouds 1500ft - KIXD 190941Z AUTO 36017KT 10SM BKN015 02/M02 A3001 RMK AO2 PK WND 36026/0907 T00171022
MVFR 37.04°F / 30.92°F 350º 18kt Gust 25kt >10km - Overcast 1300ft 1015 - KIXD 190853Z AUTO 35018G25KT 10SM OVC013 03/M01 A2999 RMK AO2 SLP157 T00281006 51030
MVFR 37.04°F / 30.92°F 360º 18kt Gust 25kt >10km - Overcast 1400ft - KIXD 190840Z AUTO 36018G25KT 10SM OVC014 03/M01 A2998 RMK AO2 T00281006
MVFR 37.04°F / 30.92°F 360º 18kt Gust 23kt >10km - Broken Clouds 1500ft - KIXD 190822Z AUTO 36018G23KT 10SM BKN015 03/M01 A2997 RMK AO2 T00281006
VFR 37.04°F / 30.92°F 360º 13kt Gust 22kt >10km - Clear 1014 - KIXD 190753Z AUTO 36013G22KT 10SM CLR 03/M01 A2996 RMK AO2 SLP147 T00281006
VFR 39.92°F / 32°F 350º 16kt >10km - Clear 1013 - KIXD 190653Z AUTO 35016KT 10SM CLR 04/00 A2993 RMK AO2 SLP136 T00440000
VFR 39.92°F / 28.94°F 320º 6kt >10km - Clear 1012 - KIXD 190553Z AUTO 32006KT 10SM CLR 04/M02 A2990 RMK AO2 SLP125 T00441017 10089 20044 401330000 53024
VFR 42.98°F / 30.02°F 290º 3kt >10km - Clear 1011 - KIXD 190453Z AUTO 29003KT 10SM CLR 06/M01 A2986 RMK AO2 SLP115 T00611011

VFR

15.98°F / °F

[More]
Wind 350º 17kt
Visibility >10km
Weather -
Clouds Overcast 10000ft
Pressure 1034
Change -
Raw KIXD 200053Z 35017KT 10SM OVC100 M09/M16 A3050 RMK AO2 PK WND 35026/0012 SLP344 T10891161

VFR

17.06°F / °F

[More]
Wind 340º 20kt Gust 26kt
Visibility >10km
Weather -
Clouds Overcast 11000ft
Pressure 1032
Change -
Raw KIXD 192353Z 34020G26KT 10SM OVC110 M08/M16 A3045 RMK AO2 PK WND 34026/2352 SLP326 T10831156 11050 21083 51026

VFR

19.04°F / °F

[More]
Wind 350º 20kt Gust 24kt
Visibility >10km
Weather -
Clouds Broken Clouds 10000ft
Pressure 1031
Change -
Raw KIXD 192253Z 35020G24KT 10SM BKN100 M07/M15 A3043 RMK AO2 PK WND 36028/2212 SLP317 T10721150

VFR

19.94°F / °F

[More]
Wind 350º 20kt Gust 27kt
Visibility >10km
Weather -
Clouds Overcast 10000ft
Pressure 1030
Change -
Raw KIXD 192153Z 35020G27KT 10SM OVC100 M07/M15 A3040 RMK AO2 PK WND 35028/2057 SLP306 T10671150

VFR

19.94°F / °F

[More]
Wind 350º 19kt Gust 26kt
Visibility >10km
Weather -
Clouds Overcast 9500ft
Pressure 1029
Change -
Raw KIXD 192053Z 35019G26KT 10SM OVC095 M07/M15 A3037 RMK AO2 PK WND 35027/2033 SLP296 T10671150 53008

VFR

23°F / °F

[More]
Wind 360º 18kt Gust 27kt
Visibility >10km
Weather -
Clouds Broken Clouds 7500ft
Overcast 8500ft
Pressure 1028
Change -
Raw KIXD 191953Z 36018G27KT 10SM BKN075 OVC085 M05/M14 A3035 RMK AO2 PK WND 35028/1932 SLP287 T10501139

VFR

21.92°F / °F

[More]
Wind 360º 18kt Gust 27kt
Visibility >10km
Weather -
Clouds Scattered Clouds 9000ft
Broken Clouds 11000ft
Pressure 1028
Change -
Raw KIXD 191853Z 36018G27KT 10SM SCT090 BKN110 M06/M14 A3035 RMK AO2 PK WND 01030/1819 SLP285 T10561139

VFR

23°F / °F

[More]
Wind 360º 16kt Gust 27kt
Visibility >10km
Weather -
Clouds Scattered Clouds 10000ft
Pressure 1028
Change -
Raw KIXD 191753Z 36016G27KT 10SM SCT100 M05/M14 A3035 RMK AO2 PK WND 35034/1738 SLP286 T10501144 11017 21056 51034

VFR

23°F / °F

[More]
Wind 360º 19kt Gust 27kt
Visibility >10km
Weather -
Clouds Broken Clouds 11000ft
Pressure 1028
Change -
Raw KIXD 191653Z 36019G27KT 10SM BKN110 M05/M13 A3033 RMK AO2 PK WND 01030/1621 SLP280 T10501128

VFR

23°F / °F

[More]
Wind 360º 16kt Gust 25kt
Visibility >10km
Weather -
Clouds Clear
Pressure 1026
Change -
Raw KIXD 191553Z 36016G25KT 10SM CLR M05/M12 A3029 RMK AO2 PK WND 36030/1519 SLP265 T10501117

VFR

24.08°F / °F

[More]
Wind 360º 20kt Gust 27kt
Visibility >10km
Weather -
Clouds Clear
Pressure 1024
Change -
Raw KIXD 191453Z 36020G27KT 10SM CLR M04/M11 A3025 RMK AO2 PK WND 01029/1405 SLP249 T10441111 51049

VFR

24.08°F / °F

[More]
Wind 360º 16kt Gust 28kt
Visibility >10km
Weather -
Clouds Clear
Pressure 1023
Change -
Raw KIXD 191353Z 36016G28KT 10SM CLR M04/M10 A3020 RMK AO2 PK WND 36028/1345 SLP234 T10441100

VFR

26.96°F / 17.06°F

[More]
Wind 360º 16kt Gust 26kt
Visibility >10km
Weather -
Clouds Clear
Pressure 1021
Change -
Raw KIXD 191253Z 36016G26KT 10SM CLR M03/M08 A3016 RMK AO2 PK WND 36030/1207 SLP218 T10281083

VFR

28.94°F / 21.02°F

[More]
Wind 360º 21kt Gust 29kt
Visibility >10km
Weather -
Clouds Few Clouds 1700ft
Pressure 1019
Change -
Raw KIXD 191153Z 36021G29KT 10SM FEW017 M02/M06 A3010 RMK AO2 PK WND 36029/1146 SLP196 T10171061 10050 21017 53035

VFR

32°F / 24.98°F

[More]
Wind 350º 17kt Gust 25kt
Visibility >10km
Weather -
Clouds Scattered Clouds 1700ft
Pressure 1017
Change -
Raw KIXD 191053Z AUTO 35017G25KT 10SM SCT017 00/M04 A3005 RMK AO2 PK WND 36028/1002 SLP179 T00001039

VFR

33.98°F / 26.96°F

[More]
Wind 360º 18kt Gust 27kt
Visibility >10km
Weather -
Clouds Scattered Clouds 1600ft
Pressure 1016
Change -
Raw KIXD 190953Z AUTO 36018G27KT 10SM SCT016 01/M03 A3001 RMK AO2 PK WND 35027/0944 SLP165 T00111028

MVFR

35.06°F / 28.04°F

[More]
Wind 360º 17kt
Visibility >10km
Weather -
Clouds Broken Clouds 1500ft
Pressure
Change -
Raw KIXD 190941Z AUTO 36017KT 10SM BKN015 02/M02 A3001 RMK AO2 PK WND 36026/0907 T00171022

MVFR

37.04°F / 30.92°F

[More]
Wind 350º 18kt Gust 25kt
Visibility >10km
Weather -
Clouds Overcast 1300ft
Pressure 1015
Change -
Raw KIXD 190853Z AUTO 35018G25KT 10SM OVC013 03/M01 A2999 RMK AO2 SLP157 T00281006 51030

MVFR

37.04°F / 30.92°F

[More]
Wind 360º 18kt Gust 25kt
Visibility >10km
Weather -
Clouds Overcast 1400ft
Pressure
Change -
Raw KIXD 190840Z AUTO 36018G25KT 10SM OVC014 03/M01 A2998 RMK AO2 T00281006

MVFR

37.04°F / 30.92°F

[More]
Wind 360º 18kt Gust 23kt
Visibility >10km
Weather -
Clouds Broken Clouds 1500ft
Pressure
Change -
Raw KIXD 190822Z AUTO 36018G23KT 10SM BKN015 03/M01 A2997 RMK AO2 T00281006

VFR

37.04°F / 30.92°F

[More]
Wind 360º 13kt Gust 22kt
Visibility >10km
Weather -
Clouds Clear
Pressure 1014
Change -
Raw KIXD 190753Z AUTO 36013G22KT 10SM CLR 03/M01 A2996 RMK AO2 SLP147 T00281006

VFR

39.92°F / 32°F

[More]
Wind 350º 16kt
Visibility >10km
Weather -
Clouds Clear
Pressure 1013
Change -
Raw KIXD 190653Z AUTO 35016KT 10SM CLR 04/00 A2993 RMK AO2 SLP136 T00440000

VFR

39.92°F / 28.94°F

[More]
Wind 320º 6kt
Visibility >10km
Weather -
Clouds Clear
Pressure 1012
Change -
Raw KIXD 190553Z AUTO 32006KT 10SM CLR 04/M02 A2990 RMK AO2 SLP125 T00441017 10089 20044 401330000 53024

VFR

42.98°F / 30.02°F

[More]
Wind 290º 3kt
Visibility >10km
Weather -
Clouds Clear
Pressure 1011
Change -
Raw KIXD 190453Z AUTO 29003KT 10SM CLR 06/M01 A2986 RMK AO2 SLP115 T00611011

TAF for Gardner (KIXD)

From till


From till Wind 360º 16kt. Gust 25kt. Visibility 10km or more. Overcast 12000ft.
From till Wind 10º 8kt. Visibility 10km or more. Scattered Clouds 25000ft.

Raw: KIXD 192321Z 2000/2024 36016G25KT P6SM OVC120 FM200400 01008KT P6SM SCT250

Radar and precipitation nowcast for Gardner

Drizzle
Light
Moderate
Heavy
Very Heavy
Hail

The location marker is placed on Gardner. This animation shows the precipitation radar for the last hour, as well as a 1h forecast. Drizzle or light snow fall might be invisible for the radar. Precipitation intensity is colour coded, ranging from light blue to orange.

Current satellite images for Gardner, United States

The location marker is placed on Gardner. [More]

The real-time satellite image combines visible light during daytime with infrared radiation during nighttime. At night, the image is not dark as infrared radiation can detect temperature differences. Unfortunately, low clouds and fog are difficult to distinguish from ground temperatures and thus can be almost invisible during the night. Meteosat satellite images for Europe are updated in real-time every 5 minutes. GOES-16/GOES-17 (North & South America) and Himawari (Asia) images update every 10 minutes.